»·PEaware :: N982YR KMFR-KRDD

N982YR :: KMFR-KRDD

FLIGHT INFORMATION

Flight Status: Arrived
Operator: Privately registered:
United States
More flights under this callsign
Pilot: Anonymous 15639 (15639)
Aircraft: CESSNA 172 SKYHAWK
(C172)
More flights by this aircraft type
Origin: KMFR Rogue Valley Intl-Medford
United States
Destination: KRDD Redding Mun
United States
More flights between these airports :: More routes between these airports
Route: FJS V23 FOLDS
File this flight plan on PilotEdge
Remarks: \RMK DEP VFR
Altitude:
(Current/Filed)
11,000ft
Speed:
(Current/Filed)
115kts
Departed: 02-Sep-18 07:47 AM
Arrived: 02-Sep-18 08:55 AM
Distance/Time
Traveled:
115nm/1:08
Distance/Time
To Go:
Arrived

Flight Plot

Page will automatically refresh every two minutes.

Flight plan parsing failed; only flown route is shown


Map Options




Map Legend


Flown Route
Filed Route
Departure Airport
Arrival Airport
Navaid (VOR, NDB)
Fix

Horizontal Profiles

Position Reports

Time Latitude Longitude Heading Altitude Ground
Speed
02-Sep-18 07:28 42.371947 -122.878180 24 1337ft 0kts
02-Sep-18 07:29 42.371947 -122.878180 24 1337ft 0kts
02-Sep-18 07:30 42.371947 -122.878180 24 1337ft 0kts
02-Sep-18 07:31 42.371947 -122.878180 24 1337ft 0kts
02-Sep-18 07:32 42.371947 -122.878180 24 1337ft 0kts
02-Sep-18 07:33 42.371947 -122.878179 24 1337ft 0kts
02-Sep-18 07:34 42.371947 -122.878179 24 1337ft 0kts
02-Sep-18 07:35 42.371947 -122.878179 24 1337ft 0kts
02-Sep-18 07:36 42.371947 -122.878179 24 1337ft 0kts
02-Sep-18 07:37 42.371947 -122.878179 24 1337ft 0kts
02-Sep-18 07:37 42.372024 -122.878149 4 1337ft 2kts
02-Sep-18 07:38 42.372738 -122.878110 24 1337ft 0kts
02-Sep-18 07:39 42.372738 -122.878110 24 1337ft 0kts
02-Sep-18 07:41 42.372738 -122.878110 24 1337ft 0kts
02-Sep-18 07:41 42.372738 -122.878110 24 1337ft 0kts
02-Sep-18 07:42 42.372738 -122.878110 24 1337ft 0kts
02-Sep-18 07:43 42.372769 -122.878092 22 1337ft 1kts
02-Sep-18 07:44 42.372770 -122.875265 9 1337ft 8kts
02-Sep-18 07:45 42.376788 -122.875837 340 1337ft 18kts
02-Sep-18 07:46 42.381330 -122.878223 338 1337ft 15kts
02-Sep-18 07:47 42.385399 -122.880378 339 1337ft 8kts
02-Sep-18 07:48 42.383560 -122.877791 157 1337ft 58kts
02-Sep-18 07:49 42.365755 -122.870094 160 1817ft 76kts
02-Sep-18 07:50 42.344866 -122.858751 154 2339ft 84kts
02-Sep-18 07:51 42.323176 -122.845765 151 2809ft 86kts
02-Sep-18 07:52 42.300793 -122.832696 149 3259ft 88kts
02-Sep-18 07:53 42.278421 -122.818282 152 3756ft 90kts
02-Sep-18 07:54 42.255328 -122.805053 159 4232ft 91kts
02-Sep-18 07:55 42.233474 -122.789277 150 4705ft 88kts
02-Sep-18 07:56 42.213228 -122.770202 140 5131ft 89kts
02-Sep-18 07:57 42.194616 -122.748110 137 5541ft 89kts
02-Sep-18 07:58 42.175212 -122.726863 143 5930ft 91kts
02-Sep-18 07:59 42.154052 -122.708042 147 6307ft 91kts
02-Sep-18 08:00 42.131598 -122.691283 154 6660ft 93kts
02-Sep-18 08:01 42.107129 -122.680541 171 7005ft 92kts
02-Sep-18 08:02 42.081447 -122.681406 184 7368ft 92kts
02-Sep-18 08:03 42.053786 -122.685906 187 7519ft 110kts
02-Sep-18 08:04 42.021873 -122.692742 190 7464ft 119kts
02-Sep-18 08:05 41.989564 -122.700198 189 7473ft 117kts
02-Sep-18 08:06 41.957417 -122.707056 188 7473ft 117kts
02-Sep-18 08:07 41.925388 -122.713591 188 7473ft 116kts
02-Sep-18 08:08 41.893392 -122.719919 187 7473ft 115kts
02-Sep-18 08:09 41.861510 -122.725847 188 7473ft 115kts
02-Sep-18 08:10 41.829807 -122.731986 188 7473ft 115kts
02-Sep-18 08:11 41.798023 -122.738209 188 7473ft 115kts
02-Sep-18 08:12 41.766197 -122.744454 188 7473ft 115kts
02-Sep-18 08:13 41.750228 -122.747588 188 7473ft 115kts
02-Sep-18 08:14 41.723139 -122.752893 189 7473ft 115kts
02-Sep-18 08:15 41.691491 -122.759104 189 7473ft 114kts
02-Sep-18 08:16 41.679169 -122.761521 189 7473ft 114kts
02-Sep-18 08:17 41.647858 -122.767648 189 7473ft 113kts
02-Sep-18 08:18 41.617880 -122.773466 188 7733ft 99kts
02-Sep-18 08:19 41.591784 -122.778486 188 8066ft 94kts
02-Sep-18 08:20 41.565732 -122.783541 188 8358ft 95kts
02-Sep-18 08:21 41.539507 -122.788648 188 8642ft 95kts
02-Sep-18 08:22 41.513229 -122.793768 188 8916ft 96kts
02-Sep-18 08:23 41.486794 -122.798917 188 9182ft 96kts
02-Sep-18 08:24 41.460339 -122.804067 188 9438ft 96kts
02-Sep-18 08:25 41.432407 -122.798338 163 9501ft 111kts
02-Sep-18 08:26 41.401854 -122.785501 163 9500ft 118kts
02-Sep-18 08:27 41.370410 -122.772057 163 9499ft 119kts
02-Sep-18 08:28 41.339052 -122.758604 163 9499ft 118kts
02-Sep-18 08:29 41.308200 -122.745361 162 9589ft 115kts
02-Sep-18 08:30 41.277649 -122.732244 162 9689ft 115kts
02-Sep-18 08:31 41.246535 -122.718905 162 9710ft 119kts
02-Sep-18 08:32 41.214914 -122.705370 163 9710ft 120kts
02-Sep-18 08:33 41.182909 -122.691685 162 9710ft 121kts
02-Sep-18 08:34 41.150652 -122.677901 162 9710ft 122kts
02-Sep-18 08:35 41.118382 -122.664124 162 9710ft 122kts
02-Sep-18 08:36 41.086100 -122.650356 162 9710ft 122kts
02-Sep-18 08:37 41.053847 -122.636615 162 9710ft 122kts
02-Sep-18 08:38 41.021056 -122.622664 162 9637ft 123kts
02-Sep-18 08:39 40.988652 -122.608884 162 9637ft 122kts
02-Sep-18 08:40 40.956292 -122.595150 163 9560ft 124kts
02-Sep-18 08:41 40.923333 -122.581325 163 9036ft 125kts
02-Sep-18 08:42 40.890024 -122.567227 163 8483ft 128kts
02-Sep-18 08:43 40.855325 -122.552538 162 7903ft 133kts
02-Sep-18 08:44 40.819935 -122.537573 162 7312ft 134kts
02-Sep-18 08:45 40.784414 -122.522570 162 6718ft 134kts
02-Sep-18 08:46 40.748898 -122.507583 162 6124ft 134kts
02-Sep-18 08:47 40.716768 -122.482885 133 5526ft 135kts
02-Sep-18 08:48 40.693227 -122.445308 128 5000ft 134kts
02-Sep-18 08:49 40.673655 -122.404684 113 4341ft 124kts
02-Sep-18 08:50 40.658175 -122.368454 131 3792ft 119kts
02-Sep-18 08:51 40.633683 -122.338507 139 3169ft 120kts
02-Sep-18 08:52 40.608422 -122.309760 141 2787ft 119kts
02-Sep-18 08:53 40.577264 -122.295130 177 1876ft 118kts
02-Sep-18 08:54 40.547711 -122.294851 180 1176ft 89kts
02-Sep-18 08:55 40.525858 -122.294887 179 660ft 73kts
02-Sep-18 08:56 40.514229 -122.295449 273 507ft 5kts
02-Sep-18 08:57 40.514234 -122.296004 269 507ft 0kts
02-Sep-18 08:58 40.512073 -122.296756 246 507ft 9kts
02-Sep-18 08:59 40.510341 -122.298624 182 507ft 6kts
02-Sep-18 09:00 40.509589 -122.298328 183 507ft 0kts

Navigation Log

Ident Type
Flight plan parsing failed, navigation log unavailable